sensor_id;sensor_type;location;lat;lon;timestamp;temperature;humidity
29237;DHT22;16266;50.866;4.398;2024-01-30T00:01:40;11.90;99.90
29237;DHT22;16266;50.866;4.398;2024-01-30T00:04:05;11.90;99.90
29237;DHT22;16266;50.866;4.398;2024-01-30T00:06:31;11.90;99.90
29237;DHT22;16266;50.866;4.398;2024-01-30T00:08:57;11.90;99.90
29237;DHT22;16266;50.866;4.398;2024-01-30T00:11:23;11.90;99.90
29237;DHT22;16266;50.866;4.398;2024-01-30T00:13:51;11.80;99.90
29237;DHT22;16266;50.866;4.398;2024-01-30T00:16:24;11.90;99.90
29237;DHT22;16266;50.866;4.398;2024-01-30T00:18:53;11.90;99.90
29237;DHT22;16266;50.866;4.398;2024-01-30T00:21:20;11.80;99.90
29237;DHT22;16266;50.866;4.398;2024-01-30T00:23:46;11.80;99.90
29237;DHT22;16266;50.866;4.398;2024-01-30T00:26:12;11.80;99.90
29237;DHT22;16266;50.866;4.398;2024-01-30T00:28:38;11.80;99.90
29237;DHT22;16266;50.866;4.398;2024-01-30T00:31:04;11.80;99.90
29237;DHT22;16266;50.866;4.398;2024-01-30T00:33:30;11.80;99.90
29237;DHT22;16266;50.866;4.398;2024-01-30T00:35:56;11.90;99.90
29237;DHT22;16266;50.866;4.398;2024-01-30T00:38:22;11.90;99.90
29237;DHT22;16266;50.866;4.398;2024-01-30T00:40:48;11.90;99.90
29237;DHT22;16266;50.866;4.398;2024-01-30T00:43:14;12.00;99.90
29237;DHT22;16266;50.866;4.398;2024-01-30T00:45:40;12.00;99.90
29237;DHT22;16266;50.866;4.398;2024-01-30T00:48:06;12.10;99.90
29237;DHT22;16266;50.866;4.398;2024-01-30T00:50:31;12.10;99.90
29237;DHT22;16266;50.866;4.398;2024-01-30T00:52:57;12.10;99.90
29237;DHT22;16266;50.866;4.398;2024-01-30T00:55:23;12.10;99.90
29237;DHT22;16266;50.866;4.398;2024-01-30T00:57:48;12.20;99.90
29237;DHT22;16266;50.866;4.398;2024-01-30T01:00:14;12.20;99.90
29237;DHT22;16266;50.866;4.398;2024-01-30T01:02:43;12.10;99.90
29237;DHT22;16266;50.866;4.398;2024-01-30T01:05:10;12.10;99.90
29237;DHT22;16266;50.866;4.398;2024-01-30T01:07:36;12.10;99.90
29237;DHT22;16266;50.866;4.398;2024-01-30T01:10:02;12.00;99.90
29237;DHT22;16266;50.866;4.398;2024-01-30T01:12:28;12.10;99.90
29237;DHT22;16266;50.866;4.398;2024-01-30T01:14:54;12.10;99.90
29237;DHT22;16266;50.866;4.398;2024-01-30T01:17:19;12.10;99.90
29237;DHT22;16266;50.866;4.398;2024-01-30T01:19:45;12.10;99.90
29237;DHT22;16266;50.866;4.398;2024-01-30T01:22:11;12.10;99.90
29237;DHT22;16266;50.866;4.398;2024-01-30T01:24:37;12.20;99.90
29237;DHT22;16266;50.866;4.398;2024-01-30T01:27:03;12.20;99.90
29237;DHT22;16266;50.866;4.398;2024-01-30T01:29:28;12.20;99.90
29237;DHT22;16266;50.866;4.398;2024-01-30T01:31:58;12.30;99.90
29237;DHT22;16266;50.866;4.398;2024-01-30T01:34:24;12.30;99.90
29237;DHT22;16266;50.866;4.398;2024-01-30T01:36:50;12.30;99.90
29237;DHT22;16266;50.866;4.398;2024-01-30T01:39:17;12.30;99.90
29237;DHT22;16266;50.866;4.398;2024-01-30T01:41:43;12.40;99.90
29237;DHT22;16266;50.866;4.398;2024-01-30T01:44:09;12.50;99.90
29237;DHT22;16266;50.866;4.398;2024-01-30T01:46:39;12.40;99.90
29237;DHT22;16266;50.866;4.398;2024-01-30T01:49:05;12.40;99.90
29237;DHT22;16266;50.866;4.398;2024-01-30T01:51:34;12.50;99.90
29237;DHT22;16266;50.866;4.398;2024-01-30T01:54:03;12.40;99.90
29237;DHT22;16266;50.866;4.398;2024-01-30T01:56:30;12.40;99.90
29237;DHT22;16266;50.866;4.398;2024-01-30T01:58:59;12.50;99.90
29237;DHT22;16266;50.866;4.398;2024-01-30T02:01:26;12.50;99.90
29237;DHT22;16266;50.866;4.398;2024-01-30T02:03:52;12.40;99.90
29237;DHT22;16266;50.866;4.398;2024-01-30T02:06:18;12.50;99.90
29237;DHT22;16266;50.866;4.398;2024-01-30T02:08:44;12.50;99.90
29237;DHT22;16266;50.866;4.398;2024-01-30T02:11:11;12.50;99.90
29237;DHT22;16266;50.866;4.398;2024-01-30T02:13:37;12.40;99.90
29237;DHT22;16266;50.866;4.398;2024-01-30T02:16:03;12.40;99.90
29237;DHT22;16266;50.866;4.398;2024-01-30T02:18:28;12.40;99.90
29237;DHT22;16266;50.866;4.398;2024-01-30T02:20:56;12.40;99.90
29237;DHT22;16266;50.866;4.398;2024-01-30T02:23:24;12.40;99.90
29237;DHT22;16266;50.866;4.398;2024-01-30T02:25:50;12.40;99.90
29237;DHT22;16266;50.866;4.398;2024-01-30T02:28:19;12.40;99.90
29237;DHT22;16266;50.866;4.398;2024-01-30T02:30:45;12.40;99.90
29237;DHT22;16266;50.866;4.398;2024-01-30T02:33:12;12.40;99.90
29237;DHT22;16266;50.866;4.398;2024-01-30T02:35:37;12.40;99.90
29237;DHT22;16266;50.866;4.398;2024-01-30T02:38:03;12.40;99.90
29237;DHT22;16266;50.866;4.398;2024-01-30T02:40:29;12.50;99.90
29237;DHT22;16266;50.866;4.398;2024-01-30T02:42:56;12.50;99.90
29237;DHT22;16266;50.866;4.398;2024-01-30T02:45:24;12.50;99.90
29237;DHT22;16266;50.866;4.398;2024-01-30T02:47:49;12.50;99.90
29237;DHT22;16266;50.866;4.398;2024-01-30T02:50:15;12.50;99.90
29237;DHT22;16266;50.866;4.398;2024-01-30T02:52:42;12.50;99.90
29237;DHT22;16266;50.866;4.398;2024-01-30T02:55:09;12.40;99.90
29237;DHT22;16266;50.866;4.398;2024-01-30T02:57:35;12.50;99.90
29237;DHT22;16266;50.866;4.398;2024-01-30T03:00:01;12.40;99.90
29237;DHT22;16266;50.866;4.398;2024-01-30T03:02:28;12.30;99.90
29237;DHT22;16266;50.866;4.398;2024-01-30T03:04:54;12.30;99.90
29237;DHT22;16266;50.866;4.398;2024-01-30T03:07:20;12.30;99.90
29237;DHT22;16266;50.866;4.398;2024-01-30T03:09:46;12.30;99.90
29237;DHT22;16266;50.866;4.398;2024-01-30T03:12:12;12.30;99.90
29237;DHT22;16266;50.866;4.398;2024-01-30T03:14:38;12.30;99.90
29237;DHT22;16266;50.866;4.398;2024-01-30T03:17:03;12.30;99.90
29237;DHT22;16266;50.866;4.398;2024-01-30T03:19:29;12.30;99.90
29237;DHT22;16266;50.866;4.398;2024-01-30T03:21:55;12.40;99.90
29237;DHT22;16266;50.866;4.398;2024-01-30T03:24:20;12.40;99.90
29237;DHT22;16266;50.866;4.398;2024-01-30T03:26:46;12.40;99.90
29237;DHT22;16266;50.866;4.398;2024-01-30T03:29:12;12.40;99.90
29237;DHT22;16266;50.866;4.398;2024-01-30T03:31:39;12.40;99.90
29237;DHT22;16266;50.866;4.398;2024-01-30T03:34:04;12.50;99.90
29237;DHT22;16266;50.866;4.398;2024-01-30T03:36:30;12.50;99.90
29237;DHT22;16266;50.866;4.398;2024-01-30T03:38:58;12.60;99.90
29237;DHT22;16266;50.866;4.398;2024-01-30T03:41:24;12.50;99.90
29237;DHT22;16266;50.866;4.398;2024-01-30T03:43:50;12.50;99.90
29237;DHT22;16266;50.866;4.398;2024-01-30T03:46:16;12.70;99.90
29237;DHT22;16266;50.866;4.398;2024-01-30T03:48:41;12.60;99.90
29237;DHT22;16266;50.866;4.398;2024-01-30T03:51:07;12.60;99.90
29237;DHT22;16266;50.866;4.398;2024-01-30T03:53:33;12.70;99.90
29237;DHT22;16266;50.866;4.398;2024-01-30T03:55:59;12.70;99.90
29237;DHT22;16266;50.866;4.398;2024-01-30T03:58:25;12.60;99.90
29237;DHT22;16266;50.866;4.398;2024-01-30T04:00:50;12.70;99.90
29237;DHT22;16266;50.866;4.398;2024-01-30T04:03:16;12.60;99.90
29237;DHT22;16266;50.866;4.398;2024-01-30T04:05:42;12.70;99.90
29237;DHT22;16266;50.866;4.398;2024-01-30T04:08:08;12.70;99.90
29237;DHT22;16266;50.866;4.398;2024-01-30T04:10:34;12.60;99.90
29237;DHT22;16266;50.866;4.398;2024-01-30T04:12:59;12.60;99.90
29237;DHT22;16266;50.866;4.398;2024-01-30T04:15:26;12.60;99.90
29237;DHT22;16266;50.866;4.398;2024-01-30T04:17:52;12.60;99.90
29237;DHT22;16266;50.866;4.398;2024-01-30T04:20:17;12.60;99.90
29237;DHT22;16266;50.866;4.398;2024-01-30T04:22:44;12.60;99.90
29237;DHT22;16266;50.866;4.398;2024-01-30T04:25:11;12.50;99.90
29237;DHT22;16266;50.866;4.398;2024-01-30T04:27:36;12.50;99.90
29237;DHT22;16266;50.866;4.398;2024-01-30T04:30:02;12.60;99.90
29237;DHT22;16266;50.866;4.398;2024-01-30T04:32:29;12.50;99.90
29237;DHT22;16266;50.866;4.398;2024-01-30T04:34:55;12.50;99.90
29237;DHT22;16266;50.866;4.398;2024-01-30T04:37:20;12.50;99.90
29237;DHT22;16266;50.866;4.398;2024-01-30T04:39:46;12.50;99.90
29237;DHT22;16266;50.866;4.398;2024-01-30T04:42:12;12.50;99.90
29237;DHT22;16266;50.866;4.398;2024-01-30T04:44:38;12.70;99.90
29237;DHT22;16266;50.866;4.398;2024-01-30T04:47:04;12.40;99.90
29237;DHT22;16266;50.866;4.398;2024-01-30T04:49:31;12.50;99.90
29237;DHT22;16266;50.866;4.398;2024-01-30T04:51:57;12.50;99.90
29237;DHT22;16266;50.866;4.398;2024-01-30T04:54:24;12.50;99.90
29237;DHT22;16266;50.866;4.398;2024-01-30T04:56:49;12.50;99.90
29237;DHT22;16266;50.866;4.398;2024-01-30T04:59:15;12.50;99.90
29237;DHT22;16266;50.866;4.398;2024-01-30T05:01:41;12.50;99.90
29237;DHT22;16266;50.866;4.398;2024-01-30T05:04:10;12.30;99.90
29237;DHT22;16266;50.866;4.398;2024-01-30T05:06:36;12.50;99.90
29237;DHT22;16266;50.866;4.398;2024-01-30T05:09:02;12.40;99.90
29237;DHT22;16266;50.866;4.398;2024-01-30T05:11:30;12.40;99.90
29237;DHT22;16266;50.866;4.398;2024-01-30T05:13:55;12.40;99.90
29237;DHT22;16266;50.866;4.398;2024-01-30T05:16:21;12.40;99.90
29237;DHT22;16266;50.866;4.398;2024-01-30T05:18:47;12.40;99.90
29237;DHT22;16266;50.866;4.398;2024-01-30T05:21:12;12.40;99.90
29237;DHT22;16266;50.866;4.398;2024-01-30T05:23:38;12.50;99.90
29237;DHT22;16266;50.866;4.398;2024-01-30T05:26:04;12.50;99.90
29237;DHT22;16266;50.866;4.398;2024-01-30T05:28:30;12.40;99.90
29237;DHT22;16266;50.866;4.398;2024-01-30T05:30:56;12.50;99.90
29237;DHT22;16266;50.866;4.398;2024-01-30T05:33:22;12.50;99.90
29237;DHT22;16266;50.866;4.398;2024-01-30T05:35:47;12.50;99.90
29237;DHT22;16266;50.866;4.398;2024-01-30T05:38:15;12.40;99.90
29237;DHT22;16266;50.866;4.398;2024-01-30T05:40:41;12.40;99.90
29237;DHT22;16266;50.866;4.398;2024-01-30T05:43:07;12.40;99.90
29237;DHT22;16266;50.866;4.398;2024-01-30T05:45:33;12.40;99.90
29237;DHT22;16266;50.866;4.398;2024-01-30T05:48:03;12.40;99.90
29237;DHT22;16266;50.866;4.398;2024-01-30T05:50:28;12.40;99.90
29237;DHT22;16266;50.866;4.398;2024-01-30T05:52:54;12.40;99.90
29237;DHT22;16266;50.866;4.398;2024-01-30T05:55:20;12.40;99.90
29237;DHT22;16266;50.866;4.398;2024-01-30T05:57:45;12.40;99.90
29237;DHT22;16266;50.866;4.398;2024-01-30T06:00:12;12.40;99.90
29237;DHT22;16266;50.866;4.398;2024-01-30T06:02:37;12.30;99.90
29237;DHT22;16266;50.866;4.398;2024-01-30T06:05:03;12.40;99.90
29237;DHT22;16266;50.866;4.398;2024-01-30T06:07:29;12.40;99.90
29237;DHT22;16266;50.866;4.398;2024-01-30T06:09:54;12.40;99.90
29237;DHT22;16266;50.866;4.398;2024-01-30T06:12:20;12.40;99.90
29237;DHT22;16266;50.866;4.398;2024-01-30T06:14:46;12.30;99.90
29237;DHT22;16266;50.866;4.398;2024-01-30T06:17:11;12.30;99.90
29237;DHT22;16266;50.866;4.398;2024-01-30T06:19:38;12.20;99.90
29237;DHT22;16266;50.866;4.398;2024-01-30T06:22:07;12.20;99.90
29237;DHT22;16266;50.866;4.398;2024-01-30T06:24:32;12.10;99.90
29237;DHT22;16266;50.866;4.398;2024-01-30T06:26:59;11.90;99.90
29237;DHT22;16266;50.866;4.398;2024-01-30T06:29:26;12.00;99.90
29237;DHT22;16266;50.866;4.398;2024-01-30T06:31:52;12.00;99.90
29237;DHT22;16266;50.866;4.398;2024-01-30T06:34:18;12.00;99.90
29237;DHT22;16266;50.866;4.398;2024-01-30T06:36:44;12.00;99.90
29237;DHT22;16266;50.866;4.398;2024-01-30T06:39:09;12.00;99.90
29237;DHT22;16266;50.866;4.398;2024-01-30T06:41:35;12.00;99.90
29237;DHT22;16266;50.866;4.398;2024-01-30T06:44:02;12.00;99.90
29237;DHT22;16266;50.866;4.398;2024-01-30T06:46:29;12.00;99.90
29237;DHT22;16266;50.866;4.398;2024-01-30T06:48:55;12.00;99.90
29237;DHT22;16266;50.866;4.398;2024-01-30T06:51:20;12.00;99.90
29237;DHT22;16266;50.866;4.398;2024-01-30T06:53:46;12.00;99.90
29237;DHT22;16266;50.866;4.398;2024-01-30T06:56:12;12.00;99.90
29237;DHT22;16266;50.866;4.398;2024-01-30T06:58:37;12.00;99.90
29237;DHT22;16266;50.866;4.398;2024-01-30T07:01:03;12.00;99.90
29237;DHT22;16266;50.866;4.398;2024-01-30T07:03:29;12.00;99.90
29237;DHT22;16266;50.866;4.398;2024-01-30T07:05:54;12.00;99.90
29237;DHT22;16266;50.866;4.398;2024-01-30T07:08:20;12.00;99.90
29237;DHT22;16266;50.866;4.398;2024-01-30T07:10:46;12.00;99.90
29237;DHT22;16266;50.866;4.398;2024-01-30T07:13:12;12.00;99.90
29237;DHT22;16266;50.866;4.398;2024-01-30T07:15:38;12.10;99.90
29237;DHT22;16266;50.866;4.398;2024-01-30T07:18:05;12.30;99.90
29237;DHT22;16266;50.866;4.398;2024-01-30T07:20:31;12.40;99.90
29237;DHT22;16266;50.866;4.398;2024-01-30T07:23:00;12.50;99.90
29237;DHT22;16266;50.866;4.398;2024-01-30T07:25:25;12.60;99.90
29237;DHT22;16266;50.866;4.398;2024-01-30T07:27:52;12.60;99.90
29237;DHT22;16266;50.866;4.398;2024-01-30T07:30:18;12.60;99.90
29237;DHT22;16266;50.866;4.398;2024-01-30T07:32:44;12.70;99.90
29237;DHT22;16266;50.866;4.398;2024-01-30T07:35:09;12.80;99.90
29237;DHT22;16266;50.866;4.398;2024-01-30T07:37:36;12.80;99.90
29237;DHT22;16266;50.866;4.398;2024-01-30T07:40:03;12.90;99.90
29237;DHT22;16266;50.866;4.398;2024-01-30T07:42:29;12.80;99.90
29237;DHT22;16266;50.866;4.398;2024-01-30T07:44:54;12.80;99.90
29237;DHT22;16266;50.866;4.398;2024-01-30T07:47:20;12.80;99.90
29237;DHT22;16266;50.866;4.398;2024-01-30T07:49:46;12.70;99.90
29237;DHT22;16266;50.866;4.398;2024-01-30T07:52:13;12.80;99.90
29237;DHT22;16266;50.866;4.398;2024-01-30T07:54:48;13.00;99.90
29237;DHT22;16266;50.866;4.398;2024-01-30T07:57:13;12.90;99.90
29237;DHT22;16266;50.866;4.398;2024-01-30T07:59:41;12.90;99.90
29237;DHT22;16266;50.866;4.398;2024-01-30T08:02:07;12.90;99.90
29237;DHT22;16266;50.866;4.398;2024-01-30T08:04:33;12.90;99.90
29237;DHT22;16266;50.866;4.398;2024-01-30T08:06:59;12.90;99.90
29237;DHT22;16266;50.866;4.398;2024-01-30T08:09:24;12.80;99.90
29237;DHT22;16266;50.866;4.398;2024-01-30T08:11:50;12.90;99.90
29237;DHT22;16266;50.866;4.398;2024-01-30T08:14:16;12.90;99.90
29237;DHT22;16266;50.866;4.398;2024-01-30T08:16:41;12.90;99.90
29237;DHT22;16266;50.866;4.398;2024-01-30T08:19:07;12.90;99.90
29237;DHT22;16266;50.866;4.398;2024-01-30T08:21:33;12.80;99.90
29237;DHT22;16266;50.866;4.398;2024-01-30T08:24:03;13.00;99.90
29237;DHT22;16266;50.866;4.398;2024-01-30T08:26:30;12.90;99.90
29237;DHT22;16266;50.866;4.398;2024-01-30T08:28:55;12.90;99.90
29237;DHT22;16266;50.866;4.398;2024-01-30T08:31:21;12.90;99.90
29237;DHT22;16266;50.866;4.398;2024-01-30T08:33:47;12.90;99.90
29237;DHT22;16266;50.866;4.398;2024-01-30T08:36:13;12.90;99.90
29237;DHT22;16266;50.866;4.398;2024-01-30T08:38:38;13.00;99.90
29237;DHT22;16266;50.866;4.398;2024-01-30T08:41:04;13.00;99.90
29237;DHT22;16266;50.866;4.398;2024-01-30T08:43:30;13.00;99.90
29237;DHT22;16266;50.866;4.398;2024-01-30T08:45:59;13.00;99.90
29237;DHT22;16266;50.866;4.398;2024-01-30T08:48:25;13.10;99.90
29237;DHT22;16266;50.866;4.398;2024-01-30T08:50:51;13.30;99.90
29237;DHT22;16266;50.866;4.398;2024-01-30T08:53:17;13.20;99.90
29237;DHT22;16266;50.866;4.398;2024-01-30T08:55:42;13.20;99.90
29237;DHT22;16266;50.866;4.398;2024-01-30T08:58:08;13.30;99.90
29237;DHT22;16266;50.866;4.398;2024-01-30T09:00:33;13.30;99.90
29237;DHT22;16266;50.866;4.398;2024-01-30T09:03:00;13.30;99.90
29237;DHT22;16266;50.866;4.398;2024-01-30T09:05:26;13.20;99.90
29237;DHT22;16266;50.866;4.398;2024-01-30T09:07:52;13.30;99.90
29237;DHT22;16266;50.866;4.398;2024-01-30T09:10:17;13.30;99.90
29237;DHT22;16266;50.866;4.398;2024-01-30T09:12:43;13.30;99.90
29237;DHT22;16266;50.866;4.398;2024-01-30T09:15:09;13.20;99.90
29237;DHT22;16266;50.866;4.398;2024-01-30T09:17:35;13.20;99.90
29237;DHT22;16266;50.866;4.398;2024-01-30T09:20:00;13.30;99.90
29237;DHT22;16266;50.866;4.398;2024-01-30T09:22:26;13.40;99.90
29237;DHT22;16266;50.866;4.398;2024-01-30T09:24:52;13.50;99.90
29237;DHT22;16266;50.866;4.398;2024-01-30T09:27:17;13.50;99.90
29237;DHT22;16266;50.866;4.398;2024-01-30T09:29:43;13.40;99.90
29237;DHT22;16266;50.866;4.398;2024-01-30T09:32:09;13.50;99.90
29237;DHT22;16266;50.866;4.398;2024-01-30T09:34:34;13.50;99.90
29237;DHT22;16266;50.866;4.398;2024-01-30T09:37:00;13.60;99.90
29237;DHT22;16266;50.866;4.398;2024-01-30T09:39:26;13.60;99.90
29237;DHT22;16266;50.866;4.398;2024-01-30T09:44:43;13.30;99.90
29237;DHT22;16266;50.866;4.398;2024-01-30T09:47:09;13.20;99.90
29237;DHT22;16266;50.866;4.398;2024-01-30T09:49:35;13.30;99.90
29237;DHT22;16266;50.866;4.398;2024-01-30T09:52:03;13.30;99.90
29237;DHT22;16266;50.866;4.398;2024-01-30T09:54:30;13.30;99.90
29237;DHT22;16266;50.866;4.398;2024-01-30T09:56:57;13.30;99.90
29237;DHT22;16266;50.866;4.398;2024-01-30T09:59:23;13.20;99.90
29237;DHT22;16266;50.866;4.398;2024-01-30T10:01:50;13.20;99.90
29237;DHT22;16266;50.866;4.398;2024-01-30T10:04:16;13.30;99.90
29237;DHT22;16266;50.866;4.398;2024-01-30T10:06:42;13.30;99.90
29237;DHT22;16266;50.866;4.398;2024-01-30T10:09:08;13.40;99.90
29237;DHT22;16266;50.866;4.398;2024-01-30T10:11:37;13.60;99.90
29237;DHT22;16266;50.866;4.398;2024-01-30T10:14:03;13.80;99.90
29237;DHT22;16266;50.866;4.398;2024-01-30T10:16:29;13.80;99.90
29237;DHT22;16266;50.866;4.398;2024-01-30T10:18:54;13.80;99.90
29237;DHT22;16266;50.866;4.398;2024-01-30T10:21:21;13.80;99.90
29237;DHT22;16266;50.866;4.398;2024-01-30T10:23:46;13.90;99.90
29237;DHT22;16266;50.866;4.398;2024-01-30T10:26:12;13.80;99.90
29237;DHT22;16266;50.866;4.398;2024-01-30T10:28:38;13.80;99.90
29237;DHT22;16266;50.866;4.398;2024-01-30T10:31:04;13.70;99.90
29237;DHT22;16266;50.866;4.398;2024-01-30T10:33:30;13.60;99.90
29237;DHT22;16266;50.866;4.398;2024-01-30T10:36:01;13.50;99.90
29237;DHT22;16266;50.866;4.398;2024-01-30T10:38:31;13.30;99.90
29237;DHT22;16266;50.866;4.398;2024-01-30T10:40:59;13.20;99.90
29237;DHT22;16266;50.866;4.398;2024-01-30T10:43:32;13.20;99.90
29237;DHT22;16266;50.866;4.398;2024-01-30T10:46:19;13.20;99.90
29237;DHT22;16266;50.866;4.398;2024-01-30T10:48:51;13.30;99.90
29237;DHT22;16266;50.866;4.398;2024-01-30T10:51:22;13.30;99.90
29237;DHT22;16266;50.866;4.398;2024-01-30T10:53:49;13.40;99.90
29237;DHT22;16266;50.866;4.398;2024-01-30T10:56:16;13.40;99.90
29237;DHT22;16266;50.866;4.398;2024-01-30T10:58:42;13.40;99.90
29237;DHT22;16266;50.866;4.398;2024-01-30T11:01:09;13.20;99.90
29237;DHT22;16266;50.866;4.398;2024-01-30T11:03:35;13.10;99.90
29237;DHT22;16266;50.866;4.398;2024-01-30T11:06:02;13.10;99.90
29237;DHT22;16266;50.866;4.398;2024-01-30T11:08:28;13.10;99.90
29237;DHT22;16266;50.866;4.398;2024-01-30T11:10:58;13.20;99.90
29237;DHT22;16266;50.866;4.398;2024-01-30T11:13:29;13.20;99.90
29237;DHT22;16266;50.866;4.398;2024-01-30T11:15:54;13.20;99.90
29237;DHT22;16266;50.866;4.398;2024-01-30T11:18:29;13.10;99.90
29237;DHT22;16266;50.866;4.398;2024-01-30T11:20:58;12.90;99.90
29237;DHT22;16266;50.866;4.398;2024-01-30T11:23:27;12.80;99.90
29237;DHT22;16266;50.866;4.398;2024-01-30T11:25:53;12.90;99.90
29237;DHT22;16266;50.866;4.398;2024-01-30T11:28:19;13.00;99.90
29237;DHT22;16266;50.866;4.398;2024-01-30T11:30:46;13.30;99.90
29237;DHT22;16266;50.866;4.398;2024-01-30T11:33:14;13.40;99.90
29237;DHT22;16266;50.866;4.398;2024-01-30T11:35:41;13.30;99.90
29237;DHT22;16266;50.866;4.398;2024-01-30T11:38:09;13.50;99.90
29237;DHT22;16266;50.866;4.398;2024-01-30T11:40:37;13.50;99.90
29237;DHT22;16266;50.866;4.398;2024-01-30T11:43:05;13.40;99.90
29237;DHT22;16266;50.866;4.398;2024-01-30T11:45:31;13.50;99.90
29237;DHT22;16266;50.866;4.398;2024-01-30T11:47:58;13.80;99.90
29237;DHT22;16266;50.866;4.398;2024-01-30T11:50:25;14.00;99.90
29237;DHT22;16266;50.866;4.398;2024-01-30T11:52:51;14.10;99.90
29237;DHT22;16266;50.866;4.398;2024-01-30T11:55:18;14.40;99.90
29237;DHT22;16266;50.866;4.398;2024-01-30T11:57:44;14.80;99.90
29237;DHT22;16266;50.866;4.398;2024-01-30T12:00:19;16.20;99.90
29237;DHT22;16266;50.866;4.398;2024-01-30T12:02:52;17.70;99.90
29237;DHT22;16266;50.866;4.398;2024-01-30T12:05:24;18.40;99.20
29237;DHT22;16266;50.866;4.398;2024-01-30T12:07:51;18.30;93.60
29237;DHT22;16266;50.866;4.398;2024-01-30T12:10:17;17.70;95.90
29237;DHT22;16266;50.866;4.398;2024-01-30T12:12:48;16.70;99.90
29237;DHT22;16266;50.866;4.398;2024-01-30T12:15:15;16.00;99.90
29237;DHT22;16266;50.866;4.398;2024-01-30T12:17:41;15.30;99.90
29237;DHT22;16266;50.866;4.398;2024-01-30T12:20:07;15.20;99.90
29237;DHT22;16266;50.866;4.398;2024-01-30T12:22:36;15.50;99.90
29237;DHT22;16266;50.866;4.398;2024-01-30T12:25:05;16.50;99.90
29237;DHT22;16266;50.866;4.398;2024-01-30T12:27:31;17.60;98.80
29237;DHT22;16266;50.866;4.398;2024-01-30T12:29:57;17.60;86.70
29237;DHT22;16266;50.866;4.398;2024-01-30T12:32:23;17.00;87.70
29237;DHT22;16266;50.866;4.398;2024-01-30T12:34:49;16.40;92.90
29237;DHT22;16266;50.866;4.398;2024-01-30T12:37:15;15.90;95.30
29237;DHT22;16266;50.866;4.398;2024-01-30T12:39:45;15.50;99.10
29237;DHT22;16266;50.866;4.398;2024-01-30T12:42:11;15.10;99.90
29237;DHT22;16266;50.866;4.398;2024-01-30T12:44:38;14.90;99.90
29237;DHT22;16266;50.866;4.398;2024-01-30T12:47:04;15.20;99.90
29237;DHT22;16266;50.866;4.398;2024-01-30T12:49:29;15.30;99.90
29237;DHT22;16266;50.866;4.398;2024-01-30T12:51:55;16.00;99.90
29237;DHT22;16266;50.866;4.398;2024-01-30T12:54:23;16.10;96.40
29237;DHT22;16266;50.866;4.398;2024-01-30T12:56:48;15.80;98.00
29237;DHT22;16266;50.866;4.398;2024-01-30T12:59:14;15.70;99.30
29237;DHT22;16266;50.866;4.398;2024-01-30T13:01:40;15.30;99.90
29237;DHT22;16266;50.866;4.398;2024-01-30T13:04:05;15.20;99.90
29237;DHT22;16266;50.866;4.398;2024-01-30T13:06:31;15.10;99.90
29237;DHT22;16266;50.866;4.398;2024-01-30T13:08:56;14.90;99.90
29237;DHT22;16266;50.866;4.398;2024-01-30T13:11:22;14.60;99.90
29237;DHT22;16266;50.866;4.398;2024-01-30T13:13:48;14.60;99.90
29237;DHT22;16266;50.866;4.398;2024-01-30T13:16:14;14.30;99.90
29237;DHT22;16266;50.866;4.398;2024-01-30T13:18:39;14.20;99.90
29237;DHT22;16266;50.866;4.398;2024-01-30T13:21:05;14.10;99.90
29237;DHT22;16266;50.866;4.398;2024-01-30T13:23:30;13.90;99.90
29237;DHT22;16266;50.866;4.398;2024-01-30T13:25:56;13.70;99.90
29237;DHT22;16266;50.866;4.398;2024-01-30T13:28:24;13.80;99.90
29237;DHT22;16266;50.866;4.398;2024-01-30T13:30:51;13.70;99.90
29237;DHT22;16266;50.866;4.398;2024-01-30T13:33:17;13.70;99.90
29237;DHT22;16266;50.866;4.398;2024-01-30T13:35:43;13.60;99.90
29237;DHT22;16266;50.866;4.398;2024-01-30T13:38:09;13.50;99.90
29237;DHT22;16266;50.866;4.398;2024-01-30T13:40:35;13.30;99.90
29237;DHT22;16266;50.866;4.398;2024-01-30T13:43:01;13.30;99.90
29237;DHT22;16266;50.866;4.398;2024-01-30T13:45:27;13.30;99.90
29237;DHT22;16266;50.866;4.398;2024-01-30T13:47:53;13.20;99.90
29237;DHT22;16266;50.866;4.398;2024-01-30T13:50:18;13.20;99.90
29237;DHT22;16266;50.866;4.398;2024-01-30T13:52:44;13.10;99.90
29237;DHT22;16266;50.866;4.398;2024-01-30T13:55:10;13.20;99.90
29237;DHT22;16266;50.866;4.398;2024-01-30T13:57:37;13.20;99.90
29237;DHT22;16266;50.866;4.398;2024-01-30T14:00:06;13.00;99.90
29237;DHT22;16266;50.866;4.398;2024-01-30T14:02:32;13.00;99.90
29237;DHT22;16266;50.866;4.398;2024-01-30T14:04:58;12.90;99.90
29237;DHT22;16266;50.866;4.398;2024-01-30T14:07:24;12.90;99.90
29237;DHT22;16266;50.866;4.398;2024-01-30T14:09:50;12.90;99.90
29237;DHT22;16266;50.866;4.398;2024-01-30T14:12:15;12.80;99.90
29237;DHT22;16266;50.866;4.398;2024-01-30T14:14:41;12.80;99.90
29237;DHT22;16266;50.866;4.398;2024-01-30T14:17:07;12.70;99.90
29237;DHT22;16266;50.866;4.398;2024-01-30T14:19:35;12.70;99.90
29237;DHT22;16266;50.866;4.398;2024-01-30T14:22:01;12.70;99.90
29237;DHT22;16266;50.866;4.398;2024-01-30T14:24:27;12.70;99.90
29237;DHT22;16266;50.866;4.398;2024-01-30T14:26:53;12.70;99.90
29237;DHT22;16266;50.866;4.398;2024-01-30T14:29:19;12.80;99.90
29237;DHT22;16266;50.866;4.398;2024-01-30T14:31:44;12.70;99.90
29237;DHT22;16266;50.866;4.398;2024-01-30T14:34:10;12.40;99.90
29237;DHT22;16266;50.866;4.398;2024-01-30T14:36:39;12.20;99.90
29237;DHT22;16266;50.866;4.398;2024-01-30T14:39:05;12.00;99.90
29237;DHT22;16266;50.866;4.398;2024-01-30T14:41:32;12.00;99.90
29237;DHT22;16266;50.866;4.398;2024-01-30T14:43:58;11.90;99.90
29237;DHT22;16266;50.866;4.398;2024-01-30T14:46:24;12.00;99.90
29237;DHT22;16266;50.866;4.398;2024-01-30T14:48:52;12.00;99.90
29237;DHT22;16266;50.866;4.398;2024-01-30T14:51:17;12.00;99.90
29237;DHT22;16266;50.866;4.398;2024-01-30T14:53:43;12.00;99.90
29237;DHT22;16266;50.866;4.398;2024-01-30T14:56:09;11.90;99.90
29237;DHT22;16266;50.866;4.398;2024-01-30T14:58:36;11.80;99.90
29237;DHT22;16266;50.866;4.398;2024-01-30T15:01:02;11.70;99.90
29237;DHT22;16266;50.866;4.398;2024-01-30T15:03:28;11.70;99.90
29237;DHT22;16266;50.866;4.398;2024-01-30T15:05:56;11.60;99.90
29237;DHT22;16266;50.866;4.398;2024-01-30T15:08:22;11.50;99.90
29237;DHT22;16266;50.866;4.398;2024-01-30T15:10:47;11.60;99.90
29237;DHT22;16266;50.866;4.398;2024-01-30T15:13:15;11.60;99.90
29237;DHT22;16266;50.866;4.398;2024-01-30T15:15:41;11.50;99.90
29237;DHT22;16266;50.866;4.398;2024-01-30T15:18:08;11.40;99.90
29237;DHT22;16266;50.866;4.398;2024-01-30T15:20:36;11.40;99.90
29237;DHT22;16266;50.866;4.398;2024-01-30T15:23:02;11.50;99.90
29237;DHT22;16266;50.866;4.398;2024-01-30T15:25:28;11.50;99.90
29237;DHT22;16266;50.866;4.398;2024-01-30T15:27:54;11.40;99.90